createdAt,value
2023-04-30T00:02:14.942Z,6.80
2023-04-30T00:04:43.047Z,6.93
2023-04-30T00:07:12.060Z,7.00
2023-04-30T00:09:40.325Z,7.40
2023-04-30T00:12:08.321Z,6.37
2023-04-30T00:14:37.699Z,6.47
2023-04-30T00:17:05.783Z,6.70
2023-04-30T00:19:33.778Z,6.20
2023-04-30T00:22:02.385Z,6.50
2023-04-30T00:24:30.590Z,6.90
2023-04-30T00:27:00.993Z,7.00
2023-04-30T00:29:29.148Z,6.70
2023-04-30T00:31:58.679Z,6.67
2023-04-30T00:34:26.805Z,6.00
2023-04-30T00:36:54.855Z,6.27
2023-04-30T00:39:22.918Z,5.87
2023-04-30T00:41:50.990Z,6.77
2023-04-30T00:44:19.102Z,6.37
2023-04-30T00:46:47.081Z,7.20
2023-04-30T00:49:16.548Z,6.73
2023-04-30T00:51:45.422Z,5.73
2023-04-30T00:54:14.097Z,6.70
2023-04-30T00:56:42.480Z,6.50
2023-04-30T00:59:11.984Z,6.43
2023-04-30T01:01:40.704Z,5.67
2023-04-30T01:04:08.768Z,6.07
2023-04-30T01:06:38.379Z,6.73
2023-04-30T01:09:06.938Z,5.67
2023-04-30T01:11:49.880Z,5.80
2023-04-30T01:14:24.901Z,5.90
2023-04-30T01:17:06.628Z,5.90
2023-04-30T01:19:43.495Z,5.70
2023-04-30T01:22:24.463Z,5.20
2023-04-30T01:25:08.387Z,5.73
2023-04-30T01:28:09.556Z,6.47
2023-04-30T01:30:40.601Z,6.60
2023-04-30T01:33:08.827Z,5.27
2023-04-30T01:36:00.188Z,5.60
2023-04-30T01:38:40.637Z,8.27
2023-04-30T01:41:16.017Z,11.87
2023-04-30T01:43:55.943Z,9.60
2023-04-30T01:46:30.256Z,8.90
2023-04-30T01:49:10.996Z,9.00
2023-04-30T01:51:42.675Z,9.23
2023-04-30T01:54:19.001Z,9.83
2023-04-30T01:56:55.104Z,8.97
2023-04-30T01:59:25.280Z,8.40
2023-04-30T02:01:56.609Z,8.97
2023-04-30T02:04:24.712Z,7.20
2023-04-30T02:06:52.774Z,8.17
2023-04-30T02:09:20.811Z,8.57
2023-04-30T02:11:48.784Z,7.53
2023-04-30T02:14:16.872Z,7.57
2023-04-30T02:16:46.152Z,8.10
2023-04-30T02:19:14.170Z,7.83
2023-04-30T02:21:42.158Z,7.77
2023-04-30T02:24:10.124Z,6.80
2023-04-30T02:26:38.098Z,6.80
2023-04-30T02:29:06.081Z,7.47
2023-04-30T02:31:34.140Z,6.37
2023-04-30T02:34:03.430Z,6.57
2023-04-30T02:36:33.528Z,7.10
2023-04-30T02:39:01.513Z,6.60
2023-04-30T02:41:29.507Z,6.50
2023-04-30T02:43:57.593Z,6.13
2023-04-30T02:46:25.797Z,6.77
2023-04-30T02:48:53.856Z,6.83
2023-04-30T02:51:23.290Z,6.60
2023-04-30T02:53:51.819Z,6.43
2023-04-30T02:56:19.800Z,6.40
2023-04-30T02:58:47.974Z,6.10
2023-04-30T03:01:16.394Z,6.33
2023-04-30T03:03:44.544Z,7.60
2023-04-30T03:06:12.579Z,6.40
2023-04-30T03:08:41.921Z,6.17
2023-04-30T03:11:09.971Z,5.80
2023-04-30T03:13:37.989Z,6.50
2023-04-30T03:16:06.631Z,6.50
2023-04-30T03:18:34.692Z,6.60
2023-04-30T03:21:02.788Z,5.63
2023-04-30T03:23:31.031Z,5.70
2023-04-30T03:26:00.377Z,6.30
2023-04-30T03:28:28.555Z,6.13
2023-04-30T03:30:56.705Z,6.40
2023-04-30T03:33:24.713Z,5.67
2023-04-30T03:35:53.406Z,5.73
2023-04-30T03:38:21.428Z,5.90
2023-04-30T03:40:49.439Z,5.50
2023-04-30T03:43:18.847Z,5.80
2023-04-30T03:45:46.910Z,5.57
2023-04-30T03:48:15.068Z,5.90
2023-04-30T03:50:43.107Z,5.97
2023-04-30T03:53:11.114Z,6.27
2023-04-30T03:55:39.637Z,5.03
2023-04-30T03:58:08.193Z,5.90
2023-04-30T04:00:37.533Z,5.67
2023-04-30T04:03:05.656Z,6.10
2023-04-30T04:05:33.670Z,5.10
2023-04-30T04:08:01.700Z,5.23
2023-04-30T04:10:30.106Z,5.70
2023-04-30T04:12:58.180Z,5.60
2023-04-30T04:15:26.363Z,5.67
2023-04-30T04:17:56.021Z,6.10
2023-04-30T04:20:24.009Z,5.10
2023-04-30T04:22:52.206Z,5.40
2023-04-30T04:25:20.789Z,4.73
2023-04-30T04:27:48.866Z,5.63
2023-04-30T04:30:16.933Z,5.40
2023-04-30T04:32:48.277Z,5.70
2023-04-30T04:35:18.907Z,5.83
2023-04-30T04:37:46.957Z,5.10
2023-04-30T04:40:15.015Z,4.60
2023-04-30T04:42:43.335Z,5.30
2023-04-30T04:45:12.102Z,5.40
2023-04-30T04:47:40.311Z,4.87
2023-04-30T04:50:09.651Z,5.73
2023-04-30T04:52:39.116Z,4.90
2023-04-30T04:55:08.530Z,4.97
2023-04-30T04:57:36.589Z,4.33
2023-04-30T05:00:06.697Z,4.77
2023-04-30T05:02:34.905Z,4.50
2023-04-30T05:05:03.041Z,5.10
2023-04-30T05:07:31.135Z,3.93
2023-04-30T05:10:00.773Z,4.83
2023-04-30T05:12:29.011Z,4.70
2023-04-30T05:14:57.057Z,4.53
2023-04-30T05:17:25.436Z,5.57
2023-04-30T05:19:54.628Z,5.83
2023-04-30T05:22:23.062Z,5.23
2023-04-30T05:24:53.030Z,4.90
2023-04-30T05:27:22.379Z,5.13
2023-04-30T05:29:50.373Z,4.87
2023-04-30T05:32:18.302Z,5.10
2023-04-30T05:34:46.411Z,5.10
2023-04-30T05:37:14.931Z,5.23
2023-04-30T05:39:42.941Z,4.70
2023-04-30T05:42:10.981Z,4.60
2023-04-30T05:44:41.008Z,5.47
2023-04-30T05:47:09.144Z,5.37
2023-04-30T05:49:37.250Z,5.30
2023-04-30T05:52:05.761Z,5.50
2023-04-30T05:54:33.904Z,4.87
2023-04-30T05:57:01.966Z,4.97
2023-04-30T05:59:29.950Z,4.43
2023-04-30T06:01:59.352Z,5.47
2023-04-30T06:04:27.411Z,4.67
2023-04-30T06:06:55.436Z,5.27
2023-04-30T06:09:23.403Z,5.57
2023-04-30T06:11:52.002Z,5.13
2023-04-30T06:14:22.529Z,5.43
2023-04-30T06:16:51.230Z,5.90
2023-04-30T06:19:20.933Z,5.47
2023-04-30T06:21:49.006Z,4.93
2023-04-30T06:24:17.154Z,6.90
2023-04-30T06:26:45.124Z,6.40
2023-04-30T06:29:13.193Z,5.90
2023-04-30T06:31:41.269Z,6.10
2023-04-30T06:34:09.292Z,5.53
2023-04-30T06:36:38.614Z,6.17
2023-04-30T06:39:06.589Z,5.27
2023-04-30T06:41:34.703Z,6.00
2023-04-30T06:44:02.710Z,6.60
2023-04-30T06:46:31.002Z,5.63
2023-04-30T06:48:59.001Z,6.60
2023-04-30T06:51:27.493Z,5.53
2023-04-30T06:53:57.066Z,5.87
2023-04-30T06:56:25.167Z,5.73
2023-04-30T06:58:53.166Z,7.00
2023-04-30T07:01:21.462Z,5.43
2023-04-30T07:03:49.705Z,6.20
2023-04-30T07:06:17.926Z,5.60
2023-04-30T07:08:45.955Z,6.10
2023-04-30T07:11:15.460Z,5.47
2023-04-30T07:13:43.440Z,5.57
2023-04-30T07:16:11.705Z,4.90
2023-04-30T07:18:40.795Z,6.27
2023-04-30T07:21:09.236Z,5.80
2023-04-30T07:23:37.238Z,5.97
2023-04-30T07:26:05.637Z,5.10
2023-04-30T07:28:35.076Z,4.90
2023-04-30T07:31:03.152Z,4.70
2023-04-30T07:33:31.372Z,4.67
2023-04-30T07:35:59.347Z,4.50
2023-04-30T07:38:27.737Z,4.67
2023-04-30T07:40:55.773Z,4.40
2023-04-30T07:43:23.924Z,5.03
2023-04-30T07:45:54.296Z,4.47
2023-04-30T07:48:22.305Z,4.33
2023-04-30T07:50:52.128Z,4.47
2023-04-30T07:53:20.937Z,4.57
2023-04-30T07:55:48.908Z,4.67
2023-04-30T07:58:17.176Z,4.03
2023-04-30T08:00:45.487Z,4.87
2023-04-30T08:03:14.937Z,3.53
2023-04-30T08:05:43.017Z,3.80
2023-04-30T08:08:11.103Z,4.13
2023-04-30T08:10:41.808Z,4.33
2023-04-30T08:13:09.920Z,4.50
2023-04-30T08:15:39.997Z,4.13
2023-04-30T08:18:08.026Z,3.67
2023-04-30T08:20:38.642Z,4.10
2023-04-30T08:23:06.826Z,3.63
2023-04-30T08:25:34.983Z,4.50
2023-04-30T08:28:02.980Z,4.30
2023-04-30T08:30:31.022Z,4.20
2023-04-30T08:32:59.258Z,4.40
2023-04-30T08:35:29.597Z,5.00
2023-04-30T08:37:59.052Z,4.70
2023-04-30T08:40:43.472Z,4.50
2023-04-30T08:43:16.509Z,4.80
2023-04-30T08:45:44.653Z,9.83
2023-04-30T08:48:15.587Z,15.37
2023-04-30T08:50:44.028Z,12.20
2023-04-30T08:53:15.692Z,11.60
2023-04-30T08:55:44.134Z,10.17
2023-04-30T08:58:12.075Z,11.70
2023-04-30T09:00:42.798Z,9.70
2023-04-30T09:03:11.078Z,9.63
2023-04-30T09:05:39.193Z,10.50
2023-04-30T09:08:09.033Z,8.97
2023-04-30T09:10:38.959Z,9.60
2023-04-30T09:13:08.943Z,10.00
2023-04-30T09:15:41.684Z,8.00
2023-04-30T09:18:13.105Z,8.07
2023-04-30T09:20:57.460Z,7.87
2023-04-30T09:23:26.296Z,8.60
2023-04-30T09:25:56.502Z,6.90
2023-04-30T09:28:25.331Z,7.23
2023-04-30T09:30:54.340Z,6.33
2023-04-30T09:33:22.416Z,5.63
2023-04-30T09:35:52.644Z,6.00
2023-04-30T09:38:28.827Z,5.13
2023-04-30T09:41:00.392Z,5.77
2023-04-30T09:43:29.012Z,4.47
2023-04-30T09:46:00.605Z,5.23
2023-04-30T09:48:29.421Z,5.27
2023-04-30T09:50:57.640Z,5.13
2023-04-30T09:53:25.686Z,3.97
2023-04-30T09:55:54.503Z,4.33
2023-04-30T09:58:26.413Z,3.73
2023-04-30T10:00:56.618Z,3.80
2023-04-30T10:03:25.085Z,4.27
2023-04-30T10:05:53.904Z,4.23
2023-04-30T10:08:27.770Z,4.00
2023-04-30T10:11:01.446Z,3.60
2023-04-30T10:13:35.908Z,3.57
2023-04-30T10:16:13.455Z,3.63
2023-04-30T10:18:44.162Z,2.90
2023-04-30T10:21:14.492Z,2.60
2023-04-30T10:23:43.630Z,2.77
2023-04-30T10:26:13.165Z,2.70
2023-04-30T10:28:43.555Z,2.53
2023-04-30T10:31:13.078Z,2.53
2023-04-30T10:33:55.733Z,2.10
2023-04-30T10:36:34.117Z,2.40
2023-04-30T10:39:03.569Z,2.13
2023-04-30T10:41:32.835Z,2.03
2023-04-30T10:44:05.124Z,2.07
2023-04-30T10:46:37.088Z,1.87
2023-04-30T10:49:05.417Z,2.07
2023-04-30T10:51:51.649Z,2.00
2023-04-30T10:54:28.570Z,1.87
2023-04-30T10:57:14.292Z,1.60
2023-04-30T10:59:54.092Z,1.43
2023-04-30T11:02:22.663Z,1.47
2023-04-30T11:05:14.377Z,1.67
2023-04-30T11:07:50.516Z,1.60
2023-04-30T11:10:22.694Z,1.40
2023-04-30T11:12:52.391Z,1.40
2023-04-30T11:15:25.701Z,1.80
2023-04-30T11:17:58.367Z,1.70
2023-04-30T11:20:27.445Z,1.40
2023-04-30T11:23:14.111Z,1.70
2023-04-30T11:25:45.600Z,1.60
2023-04-30T11:28:17.601Z,1.63
2023-04-30T11:30:54.553Z,1.60
2023-04-30T11:33:25.915Z,1.27
2023-04-30T11:35:55.994Z,1.37
2023-04-30T11:38:29.127Z,1.80
2023-04-30T11:40:59.029Z,1.57
2023-04-30T11:43:28.542Z,1.60
2023-04-30T11:46:07.354Z,1.73
2023-04-30T11:48:37.312Z,2.33
2023-04-30T11:51:07.389Z,1.80
2023-04-30T11:53:35.502Z,2.30
2023-04-30T11:56:07.423Z,2.00
2023-04-30T11:58:37.844Z,2.43
2023-04-30T12:01:09.447Z,1.83
2023-04-30T12:03:43.444Z,1.73
2023-04-30T12:06:12.882Z,1.57
2023-04-30T12:08:43.574Z,2.07
2023-04-30T12:11:25.028Z,2.17
2023-04-30T12:13:55.097Z,2.70
2023-04-30T12:16:26.037Z,2.50
2023-04-30T12:18:54.106Z,2.07
2023-04-30T12:21:23.286Z,1.90
2023-04-30T12:23:51.480Z,2.03
2023-04-30T12:26:19.458Z,2.10
2023-04-30T12:28:49.670Z,1.50
2023-04-30T12:31:18.956Z,1.67
2023-04-30T12:33:56.948Z,1.80
2023-04-30T12:36:32.606Z,1.57
2023-04-30T12:39:12.898Z,2.00
2023-04-30T12:41:43.188Z,1.60
2023-04-30T12:44:22.209Z,1.40
2023-04-30T12:46:53.358Z,1.60
2023-04-30T12:49:27.861Z,1.67
2023-04-30T12:52:04.656Z,1.40
2023-04-30T12:54:33.516Z,1.50
2023-04-30T12:57:03.865Z,1.20
2023-04-30T12:59:34.292Z,1.50
2023-04-30T13:02:11.294Z,1.27
2023-04-30T13:04:41.799Z,1.43
2023-04-30T13:07:09.915Z,1.20
2023-04-30T13:09:39.260Z,1.20
2023-04-30T13:12:07.547Z,2.00
2023-04-30T13:14:35.720Z,1.20
2023-04-30T13:17:05.809Z,1.10
2023-04-30T13:19:34.550Z,1.17
2023-04-30T13:22:03.914Z,1.00
2023-04-30T13:24:32.051Z,1.20
2023-04-30T13:27:00.212Z,0.90
2023-04-30T13:29:28.188Z,1.03
2023-04-30T13:31:56.414Z,1.23
2023-04-30T13:34:24.509Z,1.40
2023-04-30T13:36:53.423Z,0.93
2023-04-30T13:39:23.139Z,1.20
2023-04-30T13:41:51.226Z,1.67
2023-04-30T13:44:19.215Z,1.07
2023-04-30T13:46:47.253Z,1.90
2023-04-30T13:49:15.811Z,1.20
2023-04-30T13:51:43.957Z,1.47
2023-04-30T13:54:12.025Z,1.10
2023-04-30T13:56:41.512Z,1.03
2023-04-30T13:59:09.583Z,1.10
2023-04-30T14:01:37.612Z,1.10
2023-04-30T14:04:06.045Z,1.23
2023-04-30T14:06:34.273Z,0.90
2023-04-30T14:09:02.751Z,1.33
2023-04-30T14:11:31.143Z,1.30
2023-04-30T14:14:00.468Z,1.40
2023-04-30T14:16:28.817Z,1.10
2023-04-30T14:18:56.799Z,1.30
2023-04-30T14:21:24.845Z,1.10
2023-04-30T14:23:52.869Z,1.43
2023-04-30T14:26:21.579Z,1.20
2023-04-30T14:28:49.657Z,1.47
2023-04-30T14:31:19.225Z,1.30
2023-04-30T14:33:47.209Z,1.40
2023-04-30T14:36:15.382Z,1.20
2023-04-30T14:38:43.312Z,3.17
2023-04-30T14:41:11.287Z,2.23
2023-04-30T14:43:39.664Z,1.77
2023-04-30T14:46:07.966Z,2.30
2023-04-30T14:48:37.616Z,2.30
2023-04-30T14:51:05.749Z,2.87
2023-04-30T14:53:33.960Z,3.57
2023-04-30T14:56:02.273Z,2.80
2023-04-30T14:58:30.283Z,3.20
2023-04-30T15:00:58.264Z,3.10
2023-04-30T15:03:26.483Z,2.27
2023-04-30T15:05:55.985Z,2.00
2023-04-30T15:08:24.040Z,1.90
2023-04-30T15:10:52.020Z,1.63
2023-04-30T15:13:19.944Z,1.77
2023-04-30T15:15:49.539Z,1.53
2023-04-30T15:18:17.634Z,1.90
2023-04-30T15:20:45.604Z,1.70
2023-04-30T15:23:14.953Z,1.70
2023-04-30T15:25:44.073Z,2.20
2023-04-30T15:28:12.087Z,2.37
2023-04-30T15:30:40.321Z,2.07
2023-04-30T15:33:08.246Z,2.30
2023-04-30T15:35:36.350Z,1.93
2023-04-30T15:38:04.393Z,1.73
2023-04-30T15:40:33.849Z,2.23
2023-04-30T15:43:01.850Z,1.67
2023-04-30T15:45:30.386Z,1.73
2023-04-30T15:47:58.352Z,1.63
2023-04-30T15:50:26.401Z,1.93
2023-04-30T15:52:54.528Z,1.93
2023-04-30T15:55:23.129Z,2.40
2023-04-30T15:57:52.428Z,1.80
2023-04-30T16:00:23.257Z,1.80
2023-04-30T16:02:51.385Z,1.90
2023-04-30T16:05:20.024Z,1.70
2023-04-30T16:07:48.061Z,1.50
2023-04-30T16:10:16.276Z,1.97
2023-04-30T16:12:44.326Z,1.57
2023-04-30T16:15:13.811Z,1.50
2023-04-30T16:17:41.885Z,1.20
2023-04-30T16:20:11.797Z,1.30
2023-04-30T16:22:40.087Z,1.10
2023-04-30T16:25:09.982Z,2.43
2023-04-30T16:27:38.084Z,2.30
2023-04-30T16:30:09.487Z,1.27
2023-04-30T16:32:38.979Z,1.80
2023-04-30T16:35:09.448Z,1.77
2023-04-30T16:37:37.379Z,1.60
2023-04-30T16:40:07.474Z,2.57
2023-04-30T16:42:36.122Z,1.87
2023-04-30T16:45:04.402Z,1.80
2023-04-30T16:47:32.484Z,1.80
2023-04-30T16:50:01.910Z,1.67
2023-04-30T16:52:30.025Z,1.57
2023-04-30T16:54:57.936Z,1.80
2023-04-30T16:57:26.105Z,1.20
2023-04-30T16:59:54.326Z,1.40
2023-04-30T17:02:22.738Z,1.40
2023-04-30T17:04:50.905Z,1.60
2023-04-30T17:07:20.262Z,1.40
2023-04-30T17:09:48.757Z,1.77
2023-04-30T17:12:16.830Z,1.10
2023-04-30T17:14:44.871Z,1.37
2023-04-30T17:17:12.838Z,1.20
2023-04-30T17:19:41.110Z,1.63
2023-04-30T17:22:09.124Z,1.67
2023-04-30T17:24:38.445Z,1.77
2023-04-30T17:27:06.478Z,1.30
2023-04-30T17:29:34.465Z,1.50
2023-04-30T17:32:02.538Z,1.30
2023-04-30T17:34:31.071Z,1.30
2023-04-30T17:36:59.099Z,1.50
2023-04-30T17:39:28.732Z,1.80
2023-04-30T17:41:58.024Z,1.57
2023-04-30T17:44:26.161Z,1.50
2023-04-30T17:46:54.769Z,1.53
2023-04-30T17:49:23.103Z,1.50
2023-04-30T17:51:51.173Z,1.30
2023-04-30T17:54:19.170Z,1.40
2023-04-30T17:56:47.159Z,1.30
2023-04-30T17:59:16.498Z,1.43
2023-04-30T18:01:44.608Z,1.30
2023-04-30T18:04:17.904Z,1.27
2023-04-30T18:06:46.404Z,1.17
2023-04-30T18:09:16.134Z,1.67
2023-04-30T18:11:44.326Z,1.70
2023-04-30T18:14:12.460Z,1.27
2023-04-30T18:16:42.148Z,1.23
2023-04-30T18:19:10.216Z,1.77
2023-04-30T18:21:38.188Z,1.47
2023-04-30T18:24:06.720Z,1.30
2023-04-30T18:26:34.728Z,1.50
2023-04-30T18:29:03.131Z,1.17
2023-04-30T18:31:31.958Z,1.33
2023-04-30T18:34:01.285Z,1.67
2023-04-30T18:36:29.874Z,1.57
2023-04-30T18:38:57.825Z,1.43
2023-04-30T18:41:27.775Z,1.10
2023-04-30T18:43:55.808Z,0.73
2023-04-30T18:46:25.284Z,1.10
2023-04-30T18:48:53.297Z,1.60
2023-04-30T18:51:22.650Z,1.43
2023-04-30T18:53:50.989Z,1.50
2023-04-30T18:56:19.481Z,1.23
2023-04-30T18:58:47.694Z,1.83
2023-04-30T19:01:15.855Z,1.63
2023-04-30T19:03:43.994Z,1.53
2023-04-30T19:06:12.014Z,1.67
2023-04-30T19:08:41.697Z,1.93
2023-04-30T19:11:10.488Z,1.50
2023-04-30T19:13:38.443Z,1.67
2023-04-30T19:16:06.744Z,1.90
2023-04-30T19:18:35.055Z,1.50
2023-04-30T19:21:05.284Z,1.43
2023-04-30T19:23:33.316Z,1.40
2023-04-30T19:26:03.361Z,1.30
2023-04-30T19:28:31.316Z,1.10
2023-04-30T19:30:59.512Z,1.70
2023-04-30T19:33:28.229Z,1.13
2023-04-30T19:35:57.459Z,1.23
2023-04-30T19:38:25.522Z,1.60
2023-04-30T19:40:55.325Z,1.13
2023-04-30T19:43:26.147Z,1.30
2023-04-30T19:45:55.994Z,1.37
2023-04-30T19:48:25.619Z,1.77
2023-04-30T19:50:54.866Z,1.47
2023-04-30T19:53:25.484Z,1.37
2023-04-30T19:55:53.616Z,1.30
2023-04-30T19:58:21.796Z,1.13
2023-04-30T20:00:51.162Z,1.60
2023-04-30T20:03:20.489Z,1.23
2023-04-30T20:05:48.722Z,1.50
2023-04-30T20:08:16.842Z,1.13
2023-04-30T20:10:46.841Z,1.50
2023-04-30T20:13:15.716Z,1.30
2023-04-30T20:15:43.933Z,1.43
2023-04-30T20:18:13.408Z,1.53
2023-04-30T20:20:41.423Z,1.33
2023-04-30T20:23:14.898Z,1.20
2023-04-30T20:25:44.980Z,1.40
2023-04-30T20:28:13.320Z,1.30
2023-04-30T20:30:43.121Z,1.10
2023-04-30T20:33:13.809Z,1.30
2023-04-30T20:35:43.976Z,1.53
2023-04-30T20:38:12.139Z,1.70
2023-04-30T20:40:41.073Z,1.37
2023-04-30T20:43:10.463Z,1.63
2023-04-30T20:45:38.607Z,1.73
2023-04-30T20:48:08.492Z,1.50
2023-04-30T20:50:37.971Z,1.70
2023-04-30T20:53:05.986Z,1.37
2023-04-30T20:55:34.019Z,1.57
2023-04-30T20:58:03.600Z,1.67
2023-04-30T21:00:31.606Z,1.53
2023-04-30T21:02:59.778Z,1.57
2023-04-30T21:05:28.924Z,2.07
2023-04-30T21:08:00.970Z,1.83
2023-04-30T21:10:35.049Z,1.40
2023-04-30T21:13:04.804Z,1.67
2023-04-30T21:15:35.138Z,1.80
2023-04-30T21:18:03.393Z,1.97
2023-04-30T21:20:32.456Z,1.63
2023-04-30T21:23:03.185Z,1.90
2023-04-30T21:25:31.315Z,2.10
2023-04-30T21:27:59.448Z,2.33
2023-04-30T21:30:27.461Z,2.30
2023-04-30T21:32:58.348Z,2.10
2023-04-30T21:35:27.878Z,1.90
2023-04-30T21:37:56.250Z,2.40
2023-04-30T21:40:25.603Z,2.33
2023-04-30T21:42:53.688Z,1.30
2023-04-30T21:45:22.219Z,2.13
2023-04-30T21:47:50.338Z,1.67
2023-04-30T21:50:18.596Z,2.00
2023-04-30T21:52:46.808Z,1.50
2023-04-30T21:55:14.768Z,2.03
2023-04-30T21:57:46.419Z,2.10
2023-04-30T22:00:16.778Z,1.50
2023-04-30T22:02:44.829Z,2.13
2023-04-30T22:05:13.121Z,1.90
2023-04-30T22:07:41.315Z,1.90
2023-04-30T22:10:10.343Z,1.87
2023-04-30T22:12:38.690Z,1.57
2023-04-30T22:15:09.505Z,2.47
2023-04-30T22:17:37.475Z,1.90
2023-04-30T22:20:08.279Z,1.70
2023-04-30T22:22:36.249Z,1.70
2023-04-30T22:25:04.683Z,1.80
2023-04-30T22:27:32.822Z,1.50
2023-04-30T22:30:00.814Z,1.77
2023-04-30T22:32:30.138Z,1.67
2023-04-30T22:34:58.650Z,1.30
2023-04-30T22:37:27.399Z,1.60
2023-04-30T22:39:55.687Z,1.93
2023-04-30T22:42:24.223Z,1.63
2023-04-30T22:44:52.532Z,1.63
2023-04-30T22:47:20.557Z,1.77
2023-04-30T22:49:50.180Z,1.70
2023-04-30T22:52:18.148Z,1.83
2023-04-30T22:54:47.236Z,1.53
2023-04-30T22:57:15.377Z,1.80
2023-04-30T22:59:43.517Z,2.10
2023-04-30T23:02:11.462Z,1.80
2023-04-30T23:04:39.507Z,1.60
2023-04-30T23:07:09.153Z,1.90
2023-04-30T23:09:37.185Z,1.57
2023-04-30T23:12:05.614Z,1.80
2023-04-30T23:14:33.857Z,1.70
2023-04-30T23:17:01.963Z,1.43
2023-04-30T23:19:29.965Z,2.27
2023-04-30T23:21:57.941Z,1.90
2023-04-30T23:24:27.353Z,1.50
2023-04-30T23:26:57.634Z,1.93
2023-04-30T23:29:25.624Z,1.70
2023-04-30T23:31:55.134Z,1.80
2023-04-30T23:34:23.162Z,2.13
2023-04-30T23:36:51.104Z,1.67
2023-04-30T23:39:19.156Z,1.70
2023-04-30T23:41:48.515Z,1.83
2023-04-30T23:44:16.495Z,2.20
2023-04-30T23:46:44.605Z,1.30
2023-04-30T23:49:12.611Z,2.07
2023-04-30T23:51:40.589Z,1.40
2023-04-30T23:54:08.668Z,1.50
2023-04-30T23:56:37.237Z,1.53
2023-04-30T23:59:06.954Z,1.60
